Latest Coastal Weather Observations for Creal Reef

IDQ60701

Issued at 3:21 am EST Saturday 10 December 2016 (issued every 10 minutes, with the page automatically refreshed every 10 minutes)

About coastal observations | Map of coastal stations | Coastal observations for QLD | Marine services | Other Formats
Station Details ID: 200736 Name: CREAL REEF Lat: -20.53 Lon: 150.38 Height: 1.7 m
Data from the previous 72 hours. | See also: Recent months for locations in Queensland
Date/Time
EST
Temp
°C
Wind Pressure Rain since
9am
mm
Weather Cloud Vis
km
Sea
Height
m
Swell
Dir  Spd
kts
Gust
kts
hPa Trend Height
m
Period
s
Dir
10/03:00am 26.2 E 9 10 1011.2 - - - - - - - - -
10/02:30am 26.3 E 10 11 1011.2 - - - - - - - - -
10/02:20am 26.3 ENE 9 - 1011.2 - - - - - - - - -
10/02:00am 26.4 E 8 10 1011.4 - - - - - - - - -
10/01:30am 26.4 E 9 10 1011.8 - - - - - - - - -
10/01:20am 26.6 ESE 9 - 1011.8 - - - - - - - - -
10/01:00am 26.4 ESE 8 10 1011.9 - - - - - - - - -
10/12:30am 26.4 SE 8 9 1012.2 - - - - - - - - -
10/12:20am 26.5 ESE 7 - 1012.2 - - - - - - - - -
10/12:00am 26.5 ESE 6 7 1012.2 - - - - - - - - -
 
Date/Time
EST
Temp
°C
Wind Pressure Rain since
9am
mm
Weather Cloud Vis
km
Sea
Height
m
Swell
Dir  Spd
kts
Gust
kts
hPa Trend Height
m
Period
s
Dir
09/11:30pm 26.5 E 6 8 1012.6 - - - - - - - - -
09/11:20pm 26.5 E 7 - 1012.4 - - - - - - - - -
09/11:00pm 26.7 ENE 10 11 1012.3 - - - - - - - - -
09/10:30pm 26.7 ENE 13 16 1011.9 - - - - - - - - -
09/10:20pm 26.7 ENE 14 - 1011.8 - - - - - - - - -
09/10:00pm 26.7 ENE 15 17 1011.9 - - - - - - - - -
09/09:30pm 26.8 ENE 15 18 1011.5 - - - - - - - - -
09/09:20pm 26.7 ENE 15 - 1011.6 - - - - - - - - -
09/09:00pm 26.8 ENE 15 18 1011.4 - - - - - - - - -
09/08:30pm 26.7 NE 15 17 1011.2 - - - - - - - - -
09/08:20pm 26.6 ENE 15 - 1011.0 - - - - - - - - -
09/08:00pm 26.6 ENE 14 16 1011.0 - - - - - - - - -
09/07:30pm 26.5 ENE 13 15 1010.5 - - - - - - - - -
09/07:20pm 26.6 ENE 13 - 1010.4 - - - - - - - - -
09/07:00pm 26.6 ENE 12 14 1010.6 - - - - - - - - -
09/06:30pm 26.6 E 10 12 1010.6 - - - - - - - - -
09/06:20pm 26.5 E 10 - 1010.3 - - - - - - - - -
09/06:00pm 26.7 E 9 11 1010.1 - - - - - - - - -
09/05:30pm 26.6 ENE 9 11 1009.9 - - - - - - - - -
09/05:20pm 26.5 ENE 8 - 1009.8 - - - - - - - - -
09/05:00pm 26.7 ENE 7 9 1009.8 - - - - - - - - -
09/04:30pm 26.6 ENE 6 7 1009.7 - - - - - - - - -
09/04:20pm 26.7 ENE 6 - 1009.6 - - - - - - - - -
09/04:00pm 26.6 ENE 6 7 1009.6 - - - - - - - - -
09/03:30pm 26.6 ENE 7 8 1009.5 - - - - - - - - -
09/03:20pm 26.6 ENE 7 - 1009.4 - - - - - - - - -
09/03:00pm 26.7 NE 6 7 1009.6 - - - - - - - - -
09/02:30pm 26.7 NE 6 7 1009.8 - - - - - - - - -
09/02:20pm 26.8 NE 6 - 1009.7 - - - - - - - - -
09/02:00pm 26.7 NE 6 7 1010.0 - - - - - - - - -
09/01:30pm 26.8 NE 6 7 1010.3 - - - - - - - - -
09/01:20pm 26.9 NE 5 - 1010.3 - - - - - - - - -
09/01:00pm 26.9 NE 6 7 1010.5 - - - - - - - - -
09/12:30pm 26.8 NE 7 8 1010.7 - - - - - - - - -
09/12:20pm 26.7 ENE 6 - 1010.7 - - - - - - - - -
09/12:00pm 26.7 NE 7 8 1011.0 - - - - - - - - -
09/11:30am 26.7 NE 7 9 1011.2 - - - - - - - - -
09/11:20am 26.8 ENE 6 - 1011.2 - - - - - - - - -
09/11:00am 26.7 ENE 6 7 1011.5 - - - - - - - - -
09/10:30am 26.8 E 6 7 1011.8 - - - - - - - - -
09/10:20am 26.8 ENE 5 - 1011.8 - - - - - - - - -
09/10:00am 26.9 E 4 6 1012.1 - - - - - - - - -
09/09:30am 27.0 CALM 0 0 1012.2 - - - - - - - - -
09/09:20am 27.3 CALM 0 - 1012.2 - - - - - - - - -
09/09:00am 26.9 ENE 1 4 1012.2 - - - - - - - - -
09/08:30am 26.6 NE 5 5 1011.8 - - - - - - - - -
09/08:20am 26.5 NNE 5 - 1011.7 - - - - - - - - -
09/08:00am 26.5 NE 7 8 1011.3 - - - - - - - - -
09/07:30am 26.4 NNE 8 9 1011.3 - - - - - - - - -
09/07:20am 26.3 NNE 8 - 1011.1 - - - - - - - - -
09/07:00am 26.6 NNE 9 11 1011.0 - - - - - - - - -
09/06:30am 26.6 NNE 6 7 1010.9 - - - - - - - - -
09/06:20am 26.4 NNE 5 - 1010.7 - - - - - - - - -
09/06:00am 26.3 NNE 7 7 1010.6 - - - - - - - - -
09/05:30am 26.3 NNE 6 7 1010.2 - - - - - - - - -
09/05:20am 26.2 NNE 7 - 1010.0 - - - - - - - - -
09/05:00am 26.2 N 7 9 1009.9 - - - - - - - - -
09/04:30am 26.1 NNE 7 8 1009.6 - - - - - - - - -
09/04:20am 26.2 N 8 - 1009.4 - - - - - - - - -
09/04:00am 26.2 NNE 8 9 1009.3 - - - - - - - - -
09/03:30am 26.2 NNE 8 9 1009.3 - - - - - - - - -
09/03:20am 26.2 NNE 8 - 1009.2 - - - - - - - - -
09/03:00am 26.3 N 9 11 1009.3 - - - - - - - - -
09/02:30am 26.4 NNE 8 9 1009.3 - - - - - - - - -
09/02:20am 26.3 NNE 9 - 1009.1 - - - - - - - - -
09/02:00am 26.3 NNE 10 11 1009.1 - - - - - - - - -
09/01:30am 26.4 NNE 9 11 1009.6 - - - - - - - - -
09/01:20am 26.3 NNE 10 - 1009.6 - - - - - - - - -
09/01:00am 26.4 NNE 10 11 1009.9 - - - - - - - - -
09/12:30am 26.6 NNE 9 10 1010.3 - - - - - - - - -
09/12:20am 26.5 NNE 9 - 1010.4 - - - - - - - - -
09/12:00am 26.7 NE 9 11 1010.8 - - - - - - - - -
 
Date/Time
EST
Temp
°C
Wind Pressure Rain since
9am
mm
Weather Cloud Vis
km
Sea
Height
m
Swell
Dir  Spd
kts
Gust
kts
hPa Trend Height
m
Period
s
Dir
08/11:30pm 26.7 NE 9 11 1011.1 - - - - - - - - -
08/11:20pm 26.7 NNE 10 - 1011.0 - - - - - - - - -
08/11:00pm 26.6 NNE 9 11 1011.2 - - - - - - - - -
08/10:30pm 26.6 NE 8 9 1011.4 - - - - - - - - -
08/10:20pm 26.7 NE 9 - 1011.2 - - - - - - - - -
08/10:00pm 26.7 NE 10 11 1011.3 - - - - - - - - -
08/09:30pm 26.6 NE 9 11 1011.0 - - - - - - - - -
08/09:20pm 26.7 NE 10 - 1010.8 - - - - - - - - -
08/09:00pm 26.7 ENE 10 11 1010.8 - - - - - - - - -
08/08:30pm 26.8 NE 10 11 1010.5 - - - - - - - - -
08/08:20pm 26.7 NE 10 - 1010.3 - - - - - - - - -
08/08:00pm 26.6 ENE 10 11 1010.4 - - - - - - - - -
08/07:30pm 26.6 ENE 9 11 1010.3 - - - - - - - - -
08/07:20pm 26.6 ENE 10 - 1010.1 - - - - - - - - -
08/07:00pm 26.6 ENE 10 11 1010.2 - - - - - - - - -
08/06:30pm 26.7 ENE 9 10 1010.0 - - - - - - - - -
08/06:20pm 26.7 ENE 9 - 1009.9 - - - - - - - - -
08/06:00pm 26.6 ENE 9 11 1009.8 - - - - - - - - -
08/05:30pm 26.6 ENE 8 9 1009.8 - - - - - - - - -
08/05:20pm 26.7 ENE 8 - 1009.6 - - - - - - - - -
08/05:00pm 26.7 ENE 7 9 1009.7 - - - - - - - - -
08/04:30pm 26.6 E 8 10 1009.3 - - - - - - - - -
08/04:20pm 26.6 E 8 - 1009.1 - - - - - - - - -
08/04:00pm 26.7 ENE 8 10 1008.9 - - - - - - - - -
08/03:30pm 26.8 NE 8 10 1009.0 - - - - - - - - -
08/03:20pm 26.7 NE 6 - 1009.1 - - - - - - - - -
08/03:00pm 26.9 NE 5 6 1009.5 - - - - - - - - -
08/02:30pm 27.0 ENE 1 6 1009.8 - - - - - - - - -
08/02:20pm 27.2 ENE 2 - 1009.7 - - - - - - - - -
08/02:00pm 26.8 CALM 0 0 1009.8 - - - - - - - - -
08/01:30pm 26.9 E 3 4 1010.0 - - - - - - - - -
08/01:20pm 26.8 ENE 3 - 1010.0 - - - - - - - - -
08/01:00pm 26.9 E 4 5 1010.4 - - - - - - - - -
08/12:30pm 26.8 ENE 3 4 1010.8 - - - - - - - - -
08/12:20pm 27.1 NE 3 - 1010.7 - - - - - - - - -
08/12:00pm 26.8 NE 3 5 1011.0 - - - - - - - - -
08/11:30am 26.7 ENE 4 6 1011.1 - - - - - - - - -
08/11:20am 26.6 NE 4 - 1011.1 - - - - - - - - -
08/11:00am 26.5 NE 6 8 1011.4 - - - - - - - - -
08/10:30am 26.6 NE 6 8 1011.6 - - - - - - - - -
08/10:20am 26.5 NE 7 - 1011.6 - - - - - - - - -
08/10:00am 26.5 NE 7 9 1011.8 - - - - - - - - -
08/09:30am 26.7 NE 9 11 1012.1 - - - - - - - - -
08/09:20am 26.4 NE 9 - 1011.9 - - - - - - - - -
08/09:00am 26.3 NE 8 9 1012.1 - - - - - - - - -
08/08:30am 26.5 ENE 7 8 1012.2 - - - - - - - - -
08/08:20am 26.5 ENE 7 - 1012.2 - - - - - - - - -
08/08:00am 26.4 ENE 10 11 1012.2 - - - - - - - - -
08/07:30am 26.3 ENE 10 11 1012.2 - - - - - - - - -
08/07:20am 26.3 E 9 - 1012.1 - - - - - - - - -
08/07:00am 26.1 E 7 9 1012.2 - - - - - - - - -
08/06:30am 26.4 ENE 9 11 1012.1 - - - - - - - - -
08/06:20am 26.3 ENE 9 - 1012.0 - - - - - - - - -
08/06:00am 26.0 ENE 9 11 1011.8 - - - - - - - - -
08/05:30am 25.9 ENE 10 12 1011.5 - - - - - - - - -
08/05:20am 25.9 ENE 9 - 1011.2 - - - - - - - - -
08/05:00am 25.8 NE 9 11 1011.2 - - - - - - - - -
08/04:30am 25.8 NE 10 12 1010.9 - - - - - - - - -
08/04:20am 25.9 NE 9 - 1010.7 - - - - - - - - -
08/04:00am 25.9 ENE 8 10 1010.9 - - - - - - - - -
08/03:30am 25.9 NE 8 10 1010.8 - - - - - - - - -
08/03:20am 25.8 NE 8 - 1010.6 - - - - - - - - -
08/03:00am 25.9 NE 8 11 1010.5 - - - - - - - - -
08/02:30am 25.9 NE 10 13 1010.5 - - - - - - - - -
08/02:20am 25.9 NE 11 - 1010.4 - - - - - - - - -
08/02:00am 25.9 NE 11 12 1010.5 - - - - - - - - -
08/01:30am 25.9 NE 11 13 1010.6 - - - - - - - - -
08/01:20am 25.9 NE 11 - 1010.5 - - - - - - - - -
08/01:00am 26.2 NE 10 11 1010.9 - - - - - - - - -
08/12:30am 26.0 NE 11 12 1011.3 - - - - - - - - -
08/12:20am 26.1 ENE 11 - 1011.3 - - - - - - - - -
08/12:00am 26.2 ENE 12 14 1011.7 - - - - - - - - -
 
Date/Time
EST
Temp
°C
Wind Pressure Rain since
9am
mm
Weather Cloud Vis
km
Sea
Height
m
Swell
Dir  Spd
kts
Gust
kts
hPa Trend Height
m
Period
s
Dir
07/11:30pm 26.2 ENE 12 14 1012.1 - - - - - - - - -
07/11:20pm 26.3 ENE 10 - 1012.1 - - - - - - - - -
07/11:00pm 26.3 ENE 11 12 1012.5 - - - - - - - - -
07/10:30pm 26.4 E 10 12 1012.9 - - - - - - - - -
07/10:20pm 26.3 ENE 11 - 1012.8 - - - - - - - - -
07/10:00pm 26.5 ENE 11 13 1012.8 - - - - - - - - -
07/09:30pm 26.3 E 12 14 1012.5 - - - - - - - - -
07/09:20pm 26.3 ENE 12 - 1012.3 - - - - - - - - -
07/09:00pm 26.4 ENE 13 14 1012.3 - - - - - - - - -
07/08:30pm 26.5 ENE 12 14 1012.0 - - - - - - - - -
07/08:20pm 26.3 E 13 - 1011.8 - - - - - - - - -
07/08:00pm 26.5 E 13 15 1011.7 - - - - - - - - -
07/07:30pm 26.5 E 13 15 1011.5 - - - - - - - - -
07/07:20pm 26.5 ENE 13 - 1011.5 - - - - - - - - -
07/07:00pm 26.6 E 14 15 1011.7 - - - - - - - - -
07/06:30pm 26.5 E 13 15 1011.8 - - - - - - - - -
07/06:20pm 26.4 ENE 13 - 1011.6 - - - - - - - - -
07/06:00pm 26.3 E 13 15 1011.7 - - - - - - - - -
07/05:30pm 26.4 E 12 14 1011.6 - - - - - - - - -
07/05:20pm 26.4 E 12 - 1011.5 - - - - - - - - -
07/05:00pm 26.5 E 11 12 1011.4 - - - - - - - - -
07/04:30pm 26.6 E 11 13 1011.4 - - - - - - - - -
07/04:20pm 26.7 E 11 - 1011.4 - - - - - - - - -
07/04:00pm 26.7 ESE 11 13 1011.5 - - - - - - - - -
07/03:30pm 26.6 E 11 13 1011.7 - - - - - - - - -
07/03:20pm 26.8 ESE 11 - 1011.7 - - - - - - - - -
07/03:00pm 26.6 ESE 11 13 1011.9 - - - - - - - - -
07/02:30pm 26.7 SE 11 13 1012.1 - - - - - - - - -
07/02:20pm 26.7 SE 12 - 1012.1 - - - - - - - - -
07/02:00pm 26.7 SE 11 12 1012.2 - - - - - - - - -
07/01:30pm 26.8 ESE 10 12 1012.5 - - - - - - - - -
07/01:20pm 26.6 ESE 11 - 1012.5 - - - - - - - - -
07/01:00pm 26.6 ESE 11 13 1012.6 - - - - - - - - -
07/12:30pm 26.6 ESE 11 13 1012.7 - - - - - - - - -
07/12:20pm 26.6 SE 11 - 1012.7 - - - - - - - - -
07/12:00pm 26.7 SE 12 13 1012.9 - - - - - - - - -
07/11:30am 26.7 SE 10 12 1013.2 - - - - - - - - -
07/11:20am 26.7 SE 10 - 1013.2 - - - - - - - - -
07/11:00am 26.8 SE 10 11 1013.4 - - - - - - - - -
07/10:30am 26.8 SE 9 11 1013.7 - - - - - - - - -
07/10:20am 26.9 SE 9 - 1013.7 - - - - - - - - -
07/10:00am 26.8 ESE 8 9 1013.7 - - - - - - - - -
07/09:30am 26.8 ESE 9 10 1013.6 - - - - - - - - -
07/09:20am 26.9 E 8 - 1013.5 - - - - - - - - -
07/09:00am 27.0 E 9 10 1013.2 - - - - - - - - -
07/08:30am 26.7 E 8 9 1013.0 - - - - - - - - -
07/08:20am 26.6 E 5 - 1012.9 - - - - - - - - -
07/08:00am 26.6 E 7 9 1012.8 - - - - - - - - -
07/07:30am 26.4 NE 6 7 1012.7 - - - - - - - - -
07/07:20am 26.3 ENE 6 - 1012.6 - - - - - - - - -
07/07:00am 26.2 ENE 8 10 1012.5 - - - - - - - - -
07/06:30am 26.4 ENE 8 10 1012.1 - - - - - - - - -
07/06:20am 26.3 ENE 8 - 1011.9 - - - - - - - - -
07/06:00am 26.1 ENE 10 13 1011.9 - - - - - - - - -
07/05:30am 25.8 ENE 11 12 1011.5 - - - - - - - - -
07/05:20am 25.9 ENE 12 - 1011.3 - - - - - - - - -
07/05:00am 26.0 ENE 11 13 1010.9 - - - - - - - - -
07/04:30am 25.8 ENE 10 12 1010.6 - - - - - - - - -
07/04:20am 25.9 E 10 - 1010.5 - - - - - - - - -
07/04:00am 26.0 ENE 10 11 1010.7 - - - - - - - - -
07/03:30am 25.8 ENE 7 8 1010.7 - - - - - - - - -

Other Formats:

Comma delimited format used in spreadsheet applications
http://www.bom.gov.au/fwo/IDQ60701/IDQ60701.94371.axf

JavaScript Object Notation format (JSON) in row-major order
http://www.bom.gov.au/fwo/IDQ60701/IDQ60701.94371.json